Time;durP1;ratioP1;P1;durP2;ratioP2;P2;SDS_P1;SDS_P2;PMS_P1;PMS_P2;Temp;Humidity;BMP_temperature;BMP_pressure;BME280_temperature;BME280_humidity;BME280_pressure;Samples;Min_cycle;Max_cycle;Signal;HPM_P1;HPM_P2
2023/05/02 00:00:35;;;;;;;47.03;25.88;;;;;;;9.54;100.00;101639.84;5006971;28;20084;-68
2023/05/02 00:03:02;;;;;;;47.13;25.65;;;;;;;9.49;100.00;101642.81;5002942;28;20176;-68
2023/05/02 00:05:28;;;;;;;63.42;29.13;;;;;;;9.64;100.00;101643.28;5006272;28;20044;-69
2023/05/02 00:07:53;;;;;;;53.63;28.90;;;;;;;9.70;100.00;101641.94;4988479;28;20034;-68
2023/05/02 00:10:19;;;;;;;55.13;28.67;;;;;;;9.53;100.00;101638.19;5003838;28;20030;-69
2023/05/02 00:12:45;;;;;;;59.63;29.95;;;;;;;9.55;100.00;101634.53;5002087;28;20084;-69
2023/05/02 00:15:10;;;;;;;61.50;31.98;;;;;;;9.51;100.00;101629.72;5002813;28;20030;-68
2023/05/02 00:17:38;;;;;;;63.38;32.05;;;;;;;9.45;100.00;101643.19;5005422;28;20032;-68
2023/05/02 00:20:04;;;;;;;64.35;32.28;;;;;;;9.47;100.00;101634.34;4998745;28;20433;-68
2023/05/02 00:22:30;;;;;;;67.97;34.05;;;;;;;9.52;100.00;101644.31;4986778;28;20041;-68
2023/05/02 00:24:56;;;;;;;65.97;31.42;;;;;;;9.42;100.00;101640.84;4999933;28;20050;-68
2023/05/02 00:27:22;;;;;;;66.80;31.63;;;;;;;9.31;100.00;101637.41;5005772;28;20214;-68
2023/05/02 00:29:47;;;;;;;68.40;33.28;;;;;;;9.36;100.00;101655.13;4985835;28;20249;-68
2023/05/02 00:32:14;;;;;;;69.45;32.03;;;;;;;9.29;100.00;101654.81;5004138;28;20021;-68
2023/05/02 00:34:39;;;;;;;71.40;33.47;;;;;;;9.27;100.00;101659.31;4984731;28;20053;-69
2023/05/02 00:37:05;;;;;;;67.78;33.42;;;;;;;9.27;100.00;101661.09;4987180;28;20045;-68
2023/05/02 00:39:31;;;;;;;70.65;34.10;;;;;;;9.25;100.00;101660.38;4988030;28;20042;-68
2023/05/02 00:41:57;;;;;;;74.35;34.28;;;;;;;9.22;100.00;101658.03;5004945;28;20030;-68
2023/05/02 00:44:23;;;;;;;71.72;33.05;;;;;;;9.19;100.00;101664.28;4991081;28;20066;-68
2023/05/02 00:46:49;;;;;;;74.32;34.80;;;;;;;9.18;100.00;101657.47;5005529;28;20049;-68
2023/05/02 00:49:14;;;;;;;72.85;34.80;;;;;;;9.20;100.00;101662.53;4973374;28;20479;-68
2023/05/02 00:51:40;;;;;;;77.40;34.80;;;;;;;9.18;100.00;101659.25;5006830;28;20030;-69
2023/05/02 00:54:06;;;;;;;81.05;35.50;;;;;;;9.17;100.00;101661.00;4987187;28;20050;-69
2023/05/02 00:56:31;;;;;;;74.25;33.90;;;;;;;9.17;100.00;101666.16;4973171;28;20050;-68
2023/05/02 00:58:57;;;;;;;80.43;34.03;;;;;;;9.18;100.00;101667.00;4989049;28;20088;-68
2023/05/02 01:01:57;;;;;;;71.75;34.05;;;;;;;9.21;100.00;101666.75;5002852;28;20042;-69
2023/05/02 01:04:47;;;;;;;73.50;35.10;;;;;;;9.21;100.00;101670.16;5007855;28;20541;-68
2023/05/02 01:07:37;;;;;;;69.93;32.67;;;;;;;9.24;100.00;101667.31;5005111;28;20044;-68
2023/05/02 01:10:32;;;;;;;72.38;34.42;;;;;;;9.25;100.00;101671.56;5004596;28;20041;-68
2023/05/02 01:13:09;;;;;;;73.78;33.92;;;;;;;9.29;100.00;101677.31;5004052;28;20042;-68
2023/05/02 01:15:37;;;;;;;73.50;35.25;;;;;;;9.36;100.00;101678.41;4982023;28;20531;-68
2023/05/02 01:18:07;;;;;;;78.60;36.58;;;;;;;9.45;100.00;101682.84;4992084;28;20033;-68
2023/05/02 01:20:37;;;;;;;75.55;33.13;;;;;;;9.41;100.00;101684.03;4988948;28;20038;-68
2023/05/02 01:23:16;;;;;;;75.10;34.78;;;;;;;9.45;100.00;101688.00;4987531;28;20517;-68
2023/05/02 01:26:05;;;;;;;74.47;33.42;;;;;;;9.53;100.00;101680.44;5004566;28;20037;-67
2023/05/02 01:28:54;;;;;;;74.15;32.47;;;;;;;9.57;100.00;101686.19;4997471;28;20508;-68
2023/05/02 01:31:22;;;;;;;77.57;32.95;;;;;;;9.59;100.00;101683.47;4969862;28;20033;-68
2023/05/02 01:33:48;;;;;;;70.65;32.08;;;;;;;9.54;100.00;101681.25;5001087;28;20053;-69
2023/05/02 01:36:15;;;;;;;68.82;30.20;;;;;;;9.52;100.00;101683.16;5006862;28;20056;-68
2023/05/02 01:38:42;;;;;;;65.30;29.77;;;;;;;9.54;100.00;101683.84;5005645;28;20046;-68
2023/05/02 01:41:10;;;;;;;74.82;32.00;;;;;;;9.60;100.00;101695.47;4989618;28;20547;-68
2023/05/02 01:43:38;;;;;;;68.45;29.30;;;;;;;9.62;100.00;101690.97;4985310;28;20048;-68
2023/05/02 01:46:08;;;;;;;66.70;30.30;;;;;;;9.62;100.00;101694.38;4984759;28;20034;-68
2023/05/02 01:48:35;;;;;;;63.60;29.05;;;;;;;9.67;100.00;101696.59;4983961;28;20457;-68
2023/05/02 01:51:02;;;;;;;66.32;28.30;;;;;;;9.65;100.00;101695.91;5002777;28;20056;-68
2023/05/02 01:53:30;;;;;;;64.10;28.15;;;;;;;9.64;100.00;101695.06;4983036;28;20504;-68
2023/05/02 01:55:58;;;;;;;61.65;28.67;;;;;;;9.65;100.00;101701.91;5004131;28;20030;-68
2023/05/02 01:58:27;;;;;;;63.17;27.20;;;;;;;9.64;100.00;101707.22;5001111;28;20567;-69
2023/05/02 02:00:53;;;;;;;65.07;29.02;;;;;;;9.70;100.00;101704.09;4984729;28;20046;-68
2023/05/02 02:03:19;;;;;;;61.97;28.35;;;;;;;9.67;100.00;101710.38;4985903;28;20056;-68
2023/05/02 02:05:47;;;;;;;64.53;28.65;;;;;;;9.67;100.00;101705.19;4987942;28;20093;-68
2023/05/02 02:08:12;;;;;;;64.50;26.98;;;;;;;9.69;100.00;101707.66;5002743;28;20049;-68
2023/05/02 02:10:42;;;;;;;60.53;26.27;;;;;;;9.71;100.00;101703.97;5005678;28;20038;-68
2023/05/02 02:13:24;;;;;;;59.50;26.05;;;;;;;9.73;100.00;101714.22;5002120;28;20046;-68
2023/05/02 02:15:55;;;;;;;53.53;26.47;;;;;;;9.74;100.00;101714.09;5006943;28;20508;-68
2023/05/02 02:18:25;;;;;;;59.65;26.75;;;;;;;9.79;100.00;101724.06;4987239;28;20049;-68
2023/05/02 02:20:52;;;;;;;62.13;26.27;;;;;;;9.82;100.00;101723.81;4978931;28;20396;-68
2023/05/02 02:23:22;;;;;;;58.05;24.88;;;;;;;9.79;100.00;101718.88;5003734;28;20104;-68
2023/05/02 02:25:51;;;;;;;56.38;25.52;;;;;;;9.78;100.00;101719.84;4989273;28;20026;-68
2023/05/02 02:28:16;;;;;;;56.70;24.83;;;;;;;9.84;100.00;101729.69;5005094;28;20056;-68
2023/05/02 02:30:42;;;;;;;58.03;24.58;;;;;;;9.81;100.00;101727.34;5003259;28;20030;-68
2023/05/02 02:33:08;;;;;;;56.38;22.92;;;;;;;9.82;100.00;101725.59;4978676;28;20050;-68
2023/05/02 02:35:39;;;;;;;55.83;23.63;;;;;;;9.84;100.00;101727.09;4987889;28;20053;-68
2023/05/02 02:38:33;;;;;;;51.38;23.38;;;;;;;9.80;100.00;101727.50;4984679;28;20125;-68
2023/05/02 02:41:37;;;;;;;53.33;22.77;;;;;;;9.85;100.00;101733.09;5002083;28;20104;-68
2023/05/02 02:44:14;;;;;;;48.63;21.73;;;;;;;9.88;100.00;101732.84;4948104;28;20102;-68
2023/05/02 02:46:55;;;;;;;46.00;20.27;;;;;;;9.90;100.00;101736.13;5002205;28;20030;-68
2023/05/02 02:49:35;;;;;;;49.38;20.48;;;;;;;9.96;100.00;101729.59;4978238;28;20045;-67
2023/05/02 02:52:16;;;;;;;50.47;20.75;;;;;;;9.90;100.00;101736.94;4999837;28;20034;-68
2023/05/02 02:55:20;;;;;;;52.35;21.60;;;;;;;9.92;100.00;101735.03;5001381;28;20061;-68
2023/05/02 02:57:56;;;;;;;46.00;19.88;;;;;;;9.95;100.00;101744.34;4956960;28;20050;-68
2023/05/02 03:00:26;;;;;;;49.28;19.42;;;;;;;9.97;100.00;101745.03;5002954;28;20088;-68
2023/05/02 03:02:53;;;;;;;48.15;20.05;;;;;;;9.97;100.00;101749.41;5000331;28;20475;-68
2023/05/02 03:05:21;;;;;;;43.47;19.35;;;;;;;9.96;100.00;101748.53;4984378;28;20559;-68
2023/05/02 03:07:46;;;;;;;49.42;19.30;;;;;;;9.94;100.00;101751.28;4985056;28;20022;-70
2023/05/02 03:10:12;;;;;;;45.90;19.20;;;;;;;9.96;100.00;101752.91;4985876;28;20026;-70
2023/05/02 03:12:42;;;;;;;42.67;20.00;;;;;;;10.01;100.00;101754.19;5005399;28;20120;-70
2023/05/02 03:15:14;;;;;;;40.10;18.48;;;;;;;10.01;100.00;101751.59;5004150;28;20411;-70
2023/05/02 03:17:41;;;;;;;39.53;16.75;;;;;;;9.93;100.00;101757.41;4988105;28;20062;-70
2023/05/02 03:20:06;;;;;;;41.45;17.40;;;;;;;10.04;100.00;101756.53;5003138;28;20054;-70
2023/05/02 03:22:32;;;;;;;44.42;17.67;;;;;;;10.08;100.00;101762.28;5004554;28;20487;-70
2023/05/02 03:24:59;;;;;;;41.88;17.02;;;;;;;10.05;100.00;101759.94;4988921;28;20073;-71
2023/05/02 03:27:25;;;;;;;40.08;17.15;;;;;;;10.08;100.00;101762.28;5004549;28;20729;-70
2023/05/02 03:29:51;;;;;;;41.05;17.08;;;;;;;10.09;100.00;101756.13;4988487;28;20066;-71
2023/05/02 03:32:18;;;;;;;35.20;16.50;;;;;;;10.04;100.00;101764.28;5005044;28;20033;-70
2023/05/02 03:34:43;;;;;;;43.08;18.00;;;;;;;10.05;100.00;101759.94;5004471;28;20054;-71
2023/05/02 03:37:09;;;;;;;44.60;17.27;;;;;;;10.01;100.00;101767.13;5004283;28;20025;-71
2023/05/02 03:39:35;;;;;;;42.88;17.90;;;;;;;10.05;100.00;101776.28;4990782;28;20057;-70
2023/05/02 03:42:01;;;;;;;43.28;16.63;;;;;;;10.07;100.00;101776.16;4988356;28;20026;-71
2023/05/02 03:44:27;;;;;;;39.17;17.23;;;;;;;10.03;100.00;101783.38;4987585;28;20041;-71
2023/05/02 03:46:52;;;;;;;37.92;16.70;;;;;;;10.05;100.00;101789.25;4989502;28;20491;-70
2023/05/02 03:49:18;;;;;;;44.03;17.52;;;;;;;10.06;100.00;101788.31;5005234;28;20171;-70
2023/05/02 03:51:46;;;;;;;38.22;17.00;;;;;;;10.10;100.00;101788.88;5006062;28;20034;-71
2023/05/02 03:54:15;;;;;;;46.70;17.83;;;;;;;9.99;100.00;101781.19;5005500;28;20038;-70
2023/05/02 03:56:43;;;;;;;35.80;16.50;;;;;;;9.94;100.00;101774.63;4991487;28;20064;-70
2023/05/02 03:59:17;;;;;;;41.10;16.67;;;;;;;9.94;100.00;101782.38;5007899;28;20071;-70
2023/05/02 04:01:43;;;;;;;38.28;16.77;;;;;;;9.93;100.00;101779.91;5007453;28;20022;-72
2023/05/02 04:04:13;;;;;;;37.80;17.40;;;;;;;9.90;100.00;101785.34;5005668;28;20460;-71
2023/05/02 04:06:45;;;;;;;42.25;17.20;;;;;;;9.92;100.00;101781.66;4990380;28;20522;-70
2023/05/02 04:09:10;;;;;;;36.90;17.30;;;;;;;9.96;100.00;101791.78;4991306;28;20050;-70
2023/05/02 04:11:43;;;;;;;38.40;16.50;;;;;;;10.02;100.00;101796.44;4992852;28;20026;-71
2023/05/02 04:14:11;;;;;;;37.47;17.08;;;;;;;10.01;100.00;101800.00;5005333;28;20114;-70
2023/05/02 04:16:38;;;;;;;39.55;18.27;;;;;;;10.05;100.00;101806.56;4991303;28;20030;-71
2023/05/02 04:19:04;;;;;;;40.97;16.83;;;;;;;10.02;100.00;101806.81;5006518;28;20045;-70
2023/05/02 04:21:30;;;;;;;40.45;17.92;;;;;;;10.05;100.00;101812.56;4993115;28;20480;-71
2023/05/02 04:23:56;;;;;;;40.95;17.23;;;;;;;10.07;100.00;101813.25;5004942;28;20038;-70
2023/05/02 04:26:22;;;;;;;40.72;17.58;;;;;;;10.01;100.00;101815.56;5006232;28;20052;-70
2023/05/02 04:28:53;;;;;;;41.58;18.30;;;;;;;9.94;100.00;101820.41;5003353;28;20042;-70
2023/05/02 04:31:19;;;;;;;42.75;17.55;;;;;;;9.96;100.00;101826.28;4992301;28;20144;-71
2023/05/02 04:33:47;;;;;;;40.85;17.73;;;;;;;9.93;100.00;101824.78;4991709;28;20053;-70
2023/05/02 04:36:15;;;;;;;43.55;17.95;;;;;;;9.86;100.00;101831.41;5006705;28;20026;-71
2023/05/02 04:38:44;;;;;;;44.22;18.30;;;;;;;9.94;100.00;101834.22;4987085;28;21044;-71
2023/05/02 04:41:11;;;;;;;39.35;17.80;;;;;;;9.94;100.00;101835.94;4971106;28;20030;-70
2023/05/02 04:43:43;;;;;;;39.70;18.08;;;;;;;9.98;100.00;101846.88;4971319;28;20045;-70
2023/05/02 04:46:09;;;;;;;43.38;20.33;;;;;;;9.98;100.00;101839.94;4999501;28;20072;-71
2023/05/02 04:48:40;;;;;;;48.17;19.63;;;;;;;10.02;100.00;101853.47;4989676;28;20041;-70
2023/05/02 04:51:09;;;;;;;50.63;19.85;;;;;;;9.94;100.00;101852.34;4987034;28;20029;-70
2023/05/02 04:53:36;;;;;;;51.55;21.02;;;;;;;9.89;100.00;101859.66;4990014;28;20077;-71
2023/05/02 04:56:02;;;;;;;43.85;19.52;;;;;;;9.95;100.00;101863.53;4975269;28;20042;-70
2023/05/02 04:58:29;;;;;;;49.42;19.80;;;;;;;9.96;100.00;101866.91;5005158;28;20049;-70
2023/05/02 05:01:01;;;;;;;40.47;19.73;;;;;;;10.00;100.00;101869.16;4989550;28;20085;-71
2023/05/02 05:03:29;;;;;;;42.70;19.60;;;;;;;10.02;100.00;101872.44;5007621;28;20061;-70
2023/05/02 05:05:56;;;;;;;43.42;19.63;;;;;;;9.98;100.00;101876.19;5007374;28;20049;-71
2023/05/02 05:08:22;;;;;;;40.25;18.60;;;;;;;9.94;100.00;101872.22;4989350;28;20444;-70
2023/05/02 05:10:48;;;;;;;47.28;19.33;;;;;;;9.90;100.00;101873.44;5003753;28;20080;-70
2023/05/02 05:13:15;;;;;;;45.05;18.95;;;;;;;9.91;100.00;101877.69;4988118;28;20120;-70
2023/05/02 05:15:43;;;;;;;44.25;19.00;;;;;;;9.90;100.00;101888.97;4991392;28;20585;-70
2023/05/02 05:18:09;;;;;;;42.70;20.98;;;;;;;9.98;100.00;101890.94;5006921;28;20049;-70
2023/05/02 05:20:34;;;;;;;43.63;19.52;;;;;;;9.81;100.00;101890.53;5005725;28;20086;-70
2023/05/02 05:23:01;;;;;;;40.88;18.08;;;;;;;9.93;100.00;101891.31;4973195;28;20626;-71
2023/05/02 05:25:28;;;;;;;41.83;18.65;;;;;;;9.89;100.00;101889.94;5006341;28;20037;-70
2023/05/02 05:27:55;;;;;;;42.22;18.63;;;;;;;9.94;100.00;101896.38;4987605;28;20061;-70
2023/05/02 05:30:21;;;;;;;41.65;18.50;;;;;;;9.97;100.00;101900.50;5005678;28;20022;-71
2023/05/02 05:32:47;;;;;;;44.17;18.45;;;;;;;9.96;100.00;101911.78;4989921;28;20120;-70
2023/05/02 05:35:12;;;;;;;35.17;16.35;;;;;;;10.06;100.00;101907.50;4990363;28;20030;-71
2023/05/02 05:37:39;;;;;;;32.22;16.55;;;;;;;9.96;100.00;101906.59;4990990;28;20045;-70
2023/05/02 05:40:07;;;;;;;34.83;15.63;;;;;;;10.00;100.00;101910.63;4988752;28;20489;-70
2023/05/02 05:42:34;;;;;;;32.03;15.32;;;;;;;10.00;100.00;101908.03;4977107;28;20030;-71
2023/05/02 05:45:03;;;;;;;34.80;14.98;;;;;;;9.99;100.00;101914.13;5004238;28;20042;-70
2023/05/02 05:47:29;;;;;;;33.78;14.18;;;;;;;10.01;100.00;101922.59;4999210;28;20033;-71
2023/05/02 05:49:55;;;;;;;26.55;12.85;;;;;;;9.94;100.00;101926.63;5003686;28;20050;-70
2023/05/02 05:52:25;;;;;;;35.63;14.35;;;;;;;9.90;100.00;101925.25;4988239;28;20073;-70
2023/05/02 05:54:54;;;;;;;27.10;13.10;;;;;;;9.92;100.00;101934.53;4989960;28;20500;-71
2023/05/02 05:57:20;;;;;;;28.25;12.98;;;;;;;9.98;100.00;101942.75;5005683;28;20106;-70
2023/05/02 05:59:46;;;;;;;27.90;12.05;;;;;;;9.92;100.00;101949.25;4989199;28;20051;-71
2023/05/02 06:02:13;;;;;;;32.33;11.68;;;;;;;9.94;100.00;101943.03;4989548;28;20488;-70
2023/05/02 06:04:39;;;;;;;22.58;9.68;;;;;;;9.85;100.00;101951.53;5005621;28;20064;-71
2023/05/02 06:07:04;;;;;;;19.45;9.05;;;;;;;9.83;100.00;101958.59;4990364;28;20034;-71
2023/05/02 06:09:30;;;;;;;22.83;7.88;;;;;;;9.83;100.00;101963.78;5006281;28;20030;-71
2023/05/02 06:11:56;;;;;;;23.08;6.05;;;;;;;9.83;100.00;101971.56;5007662;28;20030;-71
2023/05/02 06:14:22;;;;;;;14.45;5.65;;;;;;;9.77;100.00;101969.44;5005921;28;20061;-71
2023/05/02 06:16:48;;;;;;;15.73;5.38;;;;;;;9.92;100.00;101978.56;4988735;28;20527;-71
2023/05/02 06:19:14;;;;;;;11.82;3.83;;;;;;;9.92;100.00;101964.81;4988737;28;20046;-71
2023/05/02 06:21:39;;;;;;;11.25;4.35;;;;;;;9.88;100.00;101971.19;4992731;28;20030;-71
2023/05/02 06:24:05;;;;;;;13.40;4.95;;;;;;;9.94;100.00;101979.31;5005541;28;20570;-70
2023/05/02 06:26:31;;;;;;;11.07;3.60;;;;;;;9.81;100.00;101980.38;4989873;28;20029;-71
2023/05/02 06:28:56;;;;;;;10.65;3.10;;;;;;;9.92;100.00;101983.75;4989585;28;20038;-70
2023/05/02 06:31:21;;;;;;;9.68;3.58;;;;;;;10.03;100.00;101985.50;4990265;28;20242;-72
2023/05/02 06:33:47;;;;;;;11.68;4.68;;;;;;;10.04;100.00;101988.91;4972916;28;20092;-71
2023/05/02 06:36:12;;;;;;;10.38;3.30;;;;;;;10.06;100.00;101995.63;5007167;28;20045;-71
2023/05/02 06:38:38;;;;;;;23.58;9.48;;;;;;;10.08;100.00;101991.13;5006632;28;20057;-70
2023/05/02 06:41:03;;;;;;;10.82;4.57;;;;;;;10.17;100.00;101997.34;5005679;28;20029;-71
2023/05/02 06:43:29;;;;;;;13.32;3.92;;;;;;;10.26;100.00;102001.78;4999299;28;20497;-71
2023/05/02 06:45:57;;;;;;;9.63;3.60;;;;;;;10.30;100.00;102004.94;4987125;28;20030;-70
2023/05/02 06:48:23;;;;;;;7.10;2.90;;;;;;;10.22;100.00;102013.34;4987579;28;20563;-70
2023/05/02 06:50:55;;;;;;;13.30;3.33;;;;;;;10.32;99.28;102014.28;5002126;28;20048;-71
2023/05/02 06:53:20;;;;;;;13.05;3.22;;;;;;;10.31;98.59;102017.81;4985908;28;20385;-70
2023/05/02 06:55:47;;;;;;;11.48;3.17;;;;;;;10.39;97.99;102024.16;5008004;28;20049;-71
2023/05/02 06:58:13;;;;;;;11.23;3.20;;;;;;;10.42;97.63;102032.50;5003725;28;20161;-71
2023/05/02 07:00:38;;;;;;;16.10;4.80;;;;;;;10.58;98.17;102032.06;4983983;28;20129;-71
2023/05/02 07:03:04;;;;;;;12.20;3.58;;;;;;;10.45;98.55;102031.41;5003659;28;20058;-71
2023/05/02 07:05:30;;;;;;;9.38;2.70;;;;;;;10.55;97.95;102026.31;5004386;28;20034;-71
2023/05/02 07:07:55;;;;;;;4.32;3.03;;;;;;;10.49;98.05;102041.44;5005310;28;20034;-71
2023/05/02 07:10:21;;;;;;;7.88;2.88;;;;;;;10.45;97.13;102046.97;5005449;28;20028;-70
2023/05/02 07:12:46;;;;;;;9.65;2.70;;;;;;;10.50;96.86;102050.03;4987540;28;20092;-71
2023/05/02 07:15:12;;;;;;;9.15;3.00;;;;;;;10.61;96.87;102049.97;5004950;28;20026;-71
2023/05/02 07:17:38;;;;;;;11.98;3.22;;;;;;;10.87;96.79;102053.03;4987169;28;20038;-71
2023/05/02 07:20:05;;;;;;;11.73;2.80;;;;;;;10.96;92.67;102050.59;4984266;28;20465;-71
2023/05/02 07:22:30;;;;;;;8.38;2.92;;;;;;;11.34;91.80;102046.53;5006752;28;20480;-71
2023/05/02 07:25:00;;;;;;;9.23;2.38;;;;;;;11.50;87.81;102049.50;5004458;28;20045;-70
2023/05/02 07:27:25;;;;;;;5.85;1.95;;;;;;;11.61;86.37;102046.78;5011386;28;20069;-71
2023/05/02 07:29:51;;;;;;;8.95;2.60;;;;;;;11.59;85.86;102055.69;4984757;28;20042;-71
2023/05/02 07:32:17;;;;;;;10.73;2.47;;;;;;;11.61;86.24;102064.97;5006862;28;20029;-70
2023/05/02 07:34:43;;;;;;;8.02;2.00;;;;;;;11.53;85.78;102064.81;5004939;28;20531;-71
2023/05/02 07:37:08;;;;;;;4.63;1.88;;;;;;;11.40;86.97;102072.81;5007684;28;20477;-72
2023/05/02 07:39:34;;;;;;;8.60;2.38;;;;;;;11.33;86.42;102070.88;5006841;28;20085;-72
2023/05/02 07:42:00;;;;;;;8.98;2.83;;;;;;;11.28;85.54;102079.03;5010047;28;20026;-70
2023/05/02 07:44:26;;;;;;;6.13;2.40;;;;;;;11.33;86.00;102084.69;5007662;28;20038;-70
2023/05/02 07:46:52;;;;;;;6.63;2.13;;;;;;;11.31;86.24;102078.81;5009751;28;20041;-71
2023/05/02 07:49:19;;;;;;;15.07;3.15;;;;;;;11.22;86.89;102085.56;5008179;28;20049;-71
2023/05/02 07:51:44;;;;;;;11.55;2.97;;;;;;;11.09;88.47;102087.56;4993469;28;20092;-71
2023/05/02 07:54:16;;;;;;;10.80;2.33;;;;;;;11.05;88.10;102091.38;4991522;28;20455;-71
2023/05/02 07:56:43;;;;;;;12.70;2.78;;;;;;;10.89;86.36;102097.00;4993367;28;20046;-72
2023/05/02 07:59:09;;;;;;;10.82;2.80;;;;;;;10.58;83.21;102103.88;5006654;28;20113;-70
2023/05/02 08:01:34;;;;;;;12.13;2.60;;;;;;;10.47;83.75;102108.16;5007666;28;20060;-70
2023/05/02 08:04:00;;;;;;;9.57;2.10;;;;;;;10.36;83.07;102110.78;4987696;28;20054;-70
2023/05/02 08:06:27;;;;;;;9.70;3.13;;;;;;;10.30;83.40;102119.00;4985679;28;20100;-71
2023/05/02 08:08:53;;;;;;;13.15;2.80;;;;;;;10.32;83.22;102118.00;4988777;28;20046;-72
2023/05/02 08:11:20;;;;;;;8.40;2.35;;;;;;;10.42;84.15;102128.44;5004493;28;20045;-70
2023/05/02 08:13:46;;;;;;;7.00;2.13;;;;;;;10.26;83.54;102128.78;5007352;28;20188;-70
2023/05/02 08:16:12;;;;;;;11.98;2.70;;;;;;;10.30;84.40;102132.84;5007231;28;20307;-71
2023/05/02 08:18:37;;;;;;;10.30;2.42;;;;;;;10.43;84.26;102129.25;5004830;28;20048;-71
2023/05/02 08:21:03;;;;;;;9.48;2.38;;;;;;;10.56;82.35;102129.94;4988387;28;20049;-71
2023/05/02 08:23:28;;;;;;;13.45;3.20;;;;;;;10.61;81.72;102130.38;4990046;28;20627;-70
2023/05/02 08:25:54;;;;;;;7.13;2.60;;;;;;;10.64;82.56;102140.53;4990516;28;20415;-70
2023/05/02 08:28:20;;;;;;;9.65;3.65;;;;;;;10.83;82.86;102142.44;5008565;28;20050;-71
2023/05/02 08:30:45;;;;;;;9.68;3.30;;;;;;;10.91;82.22;102145.22;4991645;28;20416;-70
2023/05/02 08:33:10;;;;;;;9.75;3.10;;;;;;;10.76;81.39;102145.69;4987647;28;20049;-71
2023/05/02 08:35:36;;;;;;;8.38;2.70;;;;;;;10.72;81.51;102152.88;5003769;28;20026;-70
2023/05/02 08:38:02;;;;;;;11.85;2.85;;;;;;;10.69;82.67;102142.72;5006625;28;20032;-71
2023/05/02 08:40:33;;;;;;;10.25;2.92;;;;;;;10.80;81.76;102149.66;4990772;28;20069;-71
2023/05/02 08:43:00;;;;;;;15.70;2.85;;;;;;;10.78;82.23;102148.97;5007491;28;20135;-71
2023/05/02 08:45:25;;;;;;;13.25;3.10;;;;;;;10.80;81.78;102157.44;5012209;28;20069;-71
2023/05/02 08:47:53;;;;;;;15.55;2.90;;;;;;;10.60;81.84;102154.66;4991604;28;20087;-71
2023/05/02 08:50:19;;;;;;;14.18;3.05;;;;;;;10.64;83.64;102157.84;5008745;28;20038;-71
2023/05/02 08:52:47;;;;;;;12.95;3.05;;;;;;;10.68;83.55;102167.88;5003417;28;20492;-71
2023/05/02 08:55:13;;;;;;;10.30;2.70;;;;;;;10.62;83.65;102173.53;5008645;28;20076;-70
2023/05/02 08:57:40;;;;;;;11.23;2.78;;;;;;;10.64;81.22;102176.84;4991702;28;20033;-72
2023/05/02 09:00:06;;;;;;;14.23;2.45;;;;;;;10.52;79.48;102177.81;5006645;28;20034;-72
2023/05/02 09:02:42;;;;;;;9.38;2.83;;;;;;;10.57;80.63;102177.44;5009616;28;20037;-71
2023/05/02 09:05:15;;;;;;;15.05;2.25;;;;;;;10.40;79.08;102192.56;5007441;28;20397;-71
2023/05/02 09:07:45;;;;;;;;;;;;;;;10.28;79.71;102201.28;5007637;28;20600;-71
2023/05/02 09:10:10;;;;;;;14.05;2.72;;;;;;;10.10;79.08;102195.75;5003890;28;19917;-71
2023/05/02 09:12:36;;;;;;;8.65;2.28;;;;;;;10.13;79.36;102204.13;5000242;28;20389;-71
2023/05/02 09:15:09;;;;;;;12.30;3.10;;;;;;;10.16;80.40;102205.66;4991067;28;20141;-71
2023/05/02 09:17:42;;;;;;;10.93;2.60;;;;;;;10.10;80.05;102219.09;4991282;28;20029;-71
2023/05/02 09:20:13;;;;;;;10.43;4.47;;;;;;;10.14;80.29;102217.91;5004554;28;20054;-71
2023/05/02 09:22:48;;;;;;;10.43;2.83;;;;;;;10.26;79.53;102211.75;5006075;28;20038;-71
2023/05/02 09:25:14;;;;;;;11.05;2.17;;;;;;;10.26;77.83;102213.53;4990127;28;20168;-70
2023/05/02 09:27:51;;;;;;;11.18;2.22;;;;;;;10.42;75.57;102215.81;4990506;28;20546;-71
2023/05/02 09:30:24;;;;;;;10.98;2.10;;;;;;;10.62;76.22;102220.22;4999119;28;20033;-70
2023/05/02 09:32:54;;;;;;;7.40;2.50;;;;;;;10.55;76.72;102224.25;4984598;28;20069;-71
2023/05/02 09:35:23;;;;;;;12.02;2.67;;;;;;;10.60;76.06;102223.88;5006654;28;20481;-72
2023/05/02 09:37:50;;;;;;;12.32;3.00;;;;;;;10.81;77.10;102224.78;5007194;28;20052;-71
2023/05/02 09:40:16;;;;;;;9.40;2.40;;;;;;;10.89;76.21;102227.59;5007202;28;20052;-70
2023/05/02 09:42:41;;;;;;;10.35;2.85;;;;;;;10.99;76.57;102232.03;5006527;28;20648;-70
2023/05/02 09:45:07;;;;;;;8.30;2.70;;;;;;;11.08;75.23;102236.50;4986204;28;20042;-71
2023/05/02 09:47:33;;;;;;;10.57;3.08;;;;;;;11.17;74.63;102246.13;5006647;28;20088;-70
2023/05/02 09:49:58;;;;;;;10.10;2.80;;;;;;;11.07;72.08;102235.63;4988467;28;20049;-71
2023/05/02 09:52:30;;;;;;;9.65;2.88;;;;;;;11.25;73.53;102237.72;5005274;28;20026;-71
2023/05/02 09:54:56;;;;;;;12.00;2.67;;;;;;;11.32;66.33;102238.88;5007451;28;20527;-71
2023/05/02 09:57:41;;;;;;;13.07;2.45;;;;;;;11.44;67.01;102243.03;5005789;28;20381;-71
2023/05/02 10:00:08;;;;;;;9.45;2.35;;;;;;;11.80;65.99;102238.31;4988124;28;20527;-71
2023/05/02 10:02:39;;;;;;;8.98;2.20;;;;;;;12.05;65.97;102242.31;5006098;28;20202;-70
2023/05/02 10:05:09;;;;;;;8.45;2.60;;;;;;;12.23;64.64;102242.50;5005649;28;20049;-71
2023/05/02 10:07:36;;;;;;;10.32;2.50;;;;;;;12.31;63.26;102241.03;5003185;28;20030;-71
2023/05/02 10:10:02;;;;;;;8.30;2.25;;;;;;;12.35;63.33;102238.03;5007153;28;20103;-71
2023/05/02 10:12:31;;;;;;;9.00;2.25;;;;;;;12.26;62.45;102250.06;5007656;28;20503;-71
2023/05/02 10:15:02;;;;;;;9.95;2.85;;;;;;;12.44;64.07;102250.22;5007531;28;20076;-71
2023/05/02 10:17:32;;;;;;;12.38;3.30;;;;;;;12.59;62.84;102257.66;5005479;28;22007;-71
2023/05/02 10:20:06;;;;;;;10.00;3.05;;;;;;;13.09;65.39;102254.16;5004440;28;20046;-71
2023/05/02 10:22:35;;;;;;;10.65;2.58;;;;;;;12.80;64.85;102254.97;5005503;28;20503;-71
2023/05/02 10:25:04;;;;;;;10.52;2.42;;;;;;;12.64;63.38;102255.50;5004683;28;20052;-71
2023/05/02 10:27:30;;;;;;;13.65;2.88;;;;;;;12.59;65.16;102255.06;4988779;28;20452;-71
2023/05/02 10:29:58;;;;;;;12.57;2.58;;;;;;;12.85;65.28;102258.00;4987489;28;20040;-70
2023/05/02 10:32:26;;;;;;;10.82;2.67;;;;;;;13.04;63.44;102258.00;5005536;28;20034;-71
2023/05/02 10:34:56;;;;;;;10.45;3.38;;;;;;;13.20;62.80;102265.28;4988996;28;20053;-71
2023/05/02 10:37:24;;;;;;;10.40;2.63;;;;;;;13.16;60.71;102252.66;5006216;28;20051;-71
2023/05/02 10:39:49;;;;;;;14.02;2.63;;;;;;;13.21;61.43;102255.66;4988247;28;20133;-70
2023/05/02 10:42:17;;;;;;;14.57;3.08;;;;;;;13.50;60.03;102254.84;4986996;28;20116;-71
2023/05/02 10:44:43;;;;;;;14.98;2.95;;;;;;;13.76;59.75;102253.28;5001826;28;20062;-70
2023/05/02 10:47:22;;;;;;;12.32;3.40;;;;;;;13.71;61.19;102252.91;5006441;28;20030;-71
2023/05/02 10:49:53;;;;;;;12.02;3.92;;;;;;;13.29;61.72;102255.78;4986945;28;20080;-71
2023/05/02 10:52:30;;;;;;;16.30;3.75;;;;;;;13.24;61.30;102256.22;5004464;28;20025;-70
2023/05/02 10:55:16;;;;;;;8.48;2.85;;;;;;;13.07;60.92;102258.69;5003218;28;20096;-71
2023/05/02 10:58:00;;;;;;;7.60;2.85;;;;;;;13.09;63.09;102260.19;5004875;28;20029;-71
2023/05/02 11:00:28;;;;;;;9.32;3.05;;;;;;;13.44;63.60;102270.06;4980212;28;20038;-71
2023/05/02 11:02:54;;;;;;;11.88;2.78;;;;;;;13.53;60.07;102270.22;5003937;28;20468;-71
2023/05/02 11:05:22;;;;;;;10.00;2.70;;;;;;;13.54;58.17;102262.25;4990852;28;20036;-71
2023/05/02 11:07:47;;;;;;;8.05;2.67;;;;;;;13.72;58.20;102261.53;5009122;28;20030;-71
2023/05/02 11:10:16;;;;;;;6.90;2.65;;;;;;;13.94;57.33;102268.19;4989841;28;20032;-71
2023/05/02 11:12:52;;;;;;;8.65;2.30;;;;;;;13.89;56.34;102259.97;5009253;28;20060;-71
2023/05/02 11:15:27;;;;;;;4.70;2.53;;;;;;;14.14;55.39;102253.28;5004464;28;21074;-71
2023/05/02 11:18:02;;;;;;;10.82;2.50;;;;;;;13.80;55.82;102256.41;5003475;28;20941;-71
2023/05/02 11:20:29;;;;;;;12.68;2.97;;;;;;;13.61;54.93;102259.91;5004758;28;20041;-71